sensor_id;sensor_type;location;lat;lon;timestamp;temperature;humidity
1135;DHT22;556;53.550;10.048;2022-10-18T00:00:44;18.70;59.70
1135;DHT22;556;53.550;10.048;2022-10-18T00:03:11;18.70;59.80
1135;DHT22;556;53.550;10.048;2022-10-18T00:05:38;18.70;59.80
1135;DHT22;556;53.550;10.048;2022-10-18T00:08:05;18.70;59.80
1135;DHT22;556;53.550;10.048;2022-10-18T00:10:32;18.60;59.80
1135;DHT22;556;53.550;10.048;2022-10-18T00:12:59;18.60;59.90
1135;DHT22;556;53.550;10.048;2022-10-18T00:15:28;18.60;59.80
1135;DHT22;556;53.550;10.048;2022-10-18T00:17:55;18.60;59.80
1135;DHT22;556;53.550;10.048;2022-10-18T00:20:22;18.50;59.80
1135;DHT22;556;53.550;10.048;2022-10-18T00:22:49;18.60;60.40
1135;DHT22;556;53.550;10.048;2022-10-18T00:25:16;18.50;59.80
1135;DHT22;556;53.550;10.048;2022-10-18T00:27:44;18.50;59.80
1135;DHT22;556;53.550;10.048;2022-10-18T00:30:11;18.60;59.90
1135;DHT22;556;53.550;10.048;2022-10-18T00:32:40;18.50;59.80
1135;DHT22;556;53.550;10.048;2022-10-18T00:35:08;18.50;59.80
1135;DHT22;556;53.550;10.048;2022-10-18T00:37:35;18.50;59.80
1135;DHT22;556;53.550;10.048;2022-10-18T00:40:03;18.50;59.80
1135;DHT22;556;53.550;10.048;2022-10-18T00:42:35;18.50;59.80
1135;DHT22;556;53.550;10.048;2022-10-18T00:45:16;18.50;59.70
1135;DHT22;556;53.550;10.048;2022-10-18T00:47:48;18.50;59.70
1135;DHT22;556;53.550;10.048;2022-10-18T00:50:19;18.50;59.80
1135;DHT22;556;53.550;10.048;2022-10-18T00:52:50;18.50;59.80
1135;DHT22;556;53.550;10.048;2022-10-18T00:55:18;18.50;59.80
1135;DHT22;556;53.550;10.048;2022-10-18T00:57:46;18.50;59.80
1135;DHT22;556;53.550;10.048;2022-10-18T01:00:13;18.50;60.40
1135;DHT22;556;53.550;10.048;2022-10-18T01:02:42;18.40;60.20
1135;DHT22;556;53.550;10.048;2022-10-18T01:05:12;18.40;59.80
1135;DHT22;556;53.550;10.048;2022-10-18T01:11:00;18.40;59.80
1135;DHT22;556;53.550;10.048;2022-10-18T01:13:38;18.30;59.70
1135;DHT22;556;53.550;10.048;2022-10-18T01:16:12;18.30;59.80
1135;DHT22;556;53.550;10.048;2022-10-18T01:18:47;18.30;59.80
1135;DHT22;556;53.550;10.048;2022-10-18T01:21:26;18.30;59.80
1135;DHT22;556;53.550;10.048;2022-10-18T01:24:36;18.30;59.80
1135;DHT22;556;53.550;10.048;2022-10-18T01:27:33;18.30;60.40
1135;DHT22;556;53.550;10.048;2022-10-18T01:30:30;18.30;60.50
1135;DHT22;556;53.550;10.048;2022-10-18T01:33:04;18.20;59.80
1135;DHT22;556;53.550;10.048;2022-10-18T01:35:36;18.20;59.70
1135;DHT22;556;53.550;10.048;2022-10-18T01:38:09;18.20;59.70
1135;DHT22;556;53.550;10.048;2022-10-18T01:40:38;18.30;59.80
1135;DHT22;556;53.550;10.048;2022-10-18T01:43:08;18.30;59.80
1135;DHT22;556;53.550;10.048;2022-10-18T01:45:37;18.30;59.80
1135;DHT22;556;53.550;10.048;2022-10-18T01:48:05;18.20;60.30
1135;DHT22;556;53.550;10.048;2022-10-18T01:50:34;18.20;59.80
1135;DHT22;556;53.550;10.048;2022-10-18T01:53:02;18.20;59.80
1135;DHT22;556;53.550;10.048;2022-10-18T01:55:32;18.20;59.80
1135;DHT22;556;53.550;10.048;2022-10-18T01:58:07;18.20;59.80
1135;DHT22;556;53.550;10.048;2022-10-18T02:00:40;18.20;60.40
1135;DHT22;556;53.550;10.048;2022-10-18T02:03:13;18.20;60.40
1135;DHT22;556;53.550;10.048;2022-10-18T02:05:46;18.20;59.80
1135;DHT22;556;53.550;10.048;2022-10-18T02:08:19;18.20;60.40
1135;DHT22;556;53.550;10.048;2022-10-18T02:10:53;18.20;60.50
1135;DHT22;556;53.550;10.048;2022-10-18T02:13:22;18.20;59.90
1135;DHT22;556;53.550;10.048;2022-10-18T02:15:58;18.20;59.80
1135;DHT22;556;53.550;10.048;2022-10-18T02:18:29;18.20;59.90
1135;DHT22;556;53.550;10.048;2022-10-18T02:20:59;18.20;59.80
1135;DHT22;556;53.550;10.048;2022-10-18T02:23:27;18.20;59.80
1135;DHT22;556;53.550;10.048;2022-10-18T02:25:54;18.20;60.40
1135;DHT22;556;53.550;10.048;2022-10-18T02:28:22;18.20;59.80
1135;DHT22;556;53.550;10.048;2022-10-18T02:30:55;18.20;59.80
1135;DHT22;556;53.550;10.048;2022-10-18T02:33:31;18.20;59.80
1135;DHT22;556;53.550;10.048;2022-10-18T02:36:05;18.20;59.80
1135;DHT22;556;53.550;10.048;2022-10-18T02:38:37;18.20;60.40
1135;DHT22;556;53.550;10.048;2022-10-18T02:41:05;18.10;60.30
1135;DHT22;556;53.550;10.048;2022-10-18T02:43:32;18.10;59.80
1135;DHT22;556;53.550;10.048;2022-10-18T02:46:02;18.00;59.80
1135;DHT22;556;53.550;10.048;2022-10-18T02:48:29;18.00;59.80
1135;DHT22;556;53.550;10.048;2022-10-18T02:50:56;18.00;59.80
1135;DHT22;556;53.550;10.048;2022-10-18T02:53:23;18.00;60.20
1135;DHT22;556;53.550;10.048;2022-10-18T02:55:50;18.00;59.80
1135;DHT22;556;53.550;10.048;2022-10-18T02:58:18;18.10;59.80
1135;DHT22;556;53.550;10.048;2022-10-18T03:00:48;18.10;59.70
1135;DHT22;556;53.550;10.048;2022-10-18T03:03:16;18.10;60.30
1135;DHT22;556;53.550;10.048;2022-10-18T03:05:43;18.20;59.70
1135;DHT22;556;53.550;10.048;2022-10-18T03:08:11;18.20;60.30
1135;DHT22;556;53.550;10.048;2022-10-18T03:10:38;18.20;61.00
1135;DHT22;556;53.550;10.048;2022-10-18T03:13:05;18.30;59.70
1135;DHT22;556;53.550;10.048;2022-10-18T03:15:32;18.20;59.60
1135;DHT22;556;53.550;10.048;2022-10-18T03:17:59;18.20;59.60
1135;DHT22;556;53.550;10.048;2022-10-18T03:20:27;18.20;60.00
1135;DHT22;556;53.550;10.048;2022-10-18T03:22:54;18.10;59.60
1135;DHT22;556;53.550;10.048;2022-10-18T03:25:21;18.10;59.70
1135;DHT22;556;53.550;10.048;2022-10-18T03:27:48;18.10;60.30
1135;DHT22;556;53.550;10.048;2022-10-18T03:30:17;18.00;59.70
1135;DHT22;556;53.550;10.048;2022-10-18T03:32:44;18.00;60.30
1135;DHT22;556;53.550;10.048;2022-10-18T03:35:11;17.90;60.20
1135;DHT22;556;53.550;10.048;2022-10-18T03:37:39;17.90;59.90
1135;DHT22;556;53.550;10.048;2022-10-18T03:40:08;17.90;60.50
1135;DHT22;556;53.550;10.048;2022-10-18T03:42:35;17.80;59.90
1135;DHT22;556;53.550;10.048;2022-10-18T03:45:02;17.80;60.60
1135;DHT22;556;53.550;10.048;2022-10-18T03:47:29;17.80;59.90
1135;DHT22;556;53.550;10.048;2022-10-18T03:49:56;17.80;59.80
1135;DHT22;556;53.550;10.048;2022-10-18T03:52:23;17.80;59.80
1135;DHT22;556;53.550;10.048;2022-10-18T03:54:52;17.80;59.80
1135;DHT22;556;53.550;10.048;2022-10-18T03:57:19;17.80;59.80
1135;DHT22;556;53.550;10.048;2022-10-18T03:59:46;17.80;59.80
1135;DHT22;556;53.550;10.048;2022-10-18T04:02:13;17.80;59.80
1135;DHT22;556;53.550;10.048;2022-10-18T04:04:40;17.70;59.70
1135;DHT22;556;53.550;10.048;2022-10-18T04:07:07;17.70;59.80
1135;DHT22;556;53.550;10.048;2022-10-18T04:09:34;17.70;59.90
1135;DHT22;556;53.550;10.048;2022-10-18T04:12:03;17.70;60.50
1135;DHT22;556;53.550;10.048;2022-10-18T04:14:30;17.70;60.50
1135;DHT22;556;53.550;10.048;2022-10-18T04:16:57;17.60;59.80
1135;DHT22;556;53.550;10.048;2022-10-18T04:19:24;17.60;59.80
1135;DHT22;556;53.550;10.048;2022-10-18T04:21:52;17.60;59.80
1135;DHT22;556;53.550;10.048;2022-10-18T04:24:19;17.60;59.80
1135;DHT22;556;53.550;10.048;2022-10-18T04:26:46;17.50;60.30
1135;DHT22;556;53.550;10.048;2022-10-18T04:29:15;17.50;59.80
1135;DHT22;556;53.550;10.048;2022-10-18T04:31:42;17.50;59.80
1135;DHT22;556;53.550;10.048;2022-10-18T04:34:09;17.50;59.80
1135;DHT22;556;53.550;10.048;2022-10-18T04:36:36;17.50;60.40
1135;DHT22;556;53.550;10.048;2022-10-18T04:39:03;17.50;59.90
1135;DHT22;556;53.550;10.048;2022-10-18T04:41:30;17.50;60.20
1135;DHT22;556;53.550;10.048;2022-10-18T04:43:58;17.50;59.80
1135;DHT22;556;53.550;10.048;2022-10-18T04:46:29;17.50;60.50
1135;DHT22;556;53.550;10.048;2022-10-18T04:48:56;17.40;59.80
1135;DHT22;556;53.550;10.048;2022-10-18T04:51:25;17.40;59.80
1135;DHT22;556;53.550;10.048;2022-10-18T04:53:52;17.40;59.80
1135;DHT22;556;53.550;10.048;2022-10-18T04:56:19;17.40;59.90
1135;DHT22;556;53.550;10.048;2022-10-18T04:58:46;17.40;59.90
1135;DHT22;556;53.550;10.048;2022-10-18T05:01:13;17.40;59.80
1135;DHT22;556;53.550;10.048;2022-10-18T05:03:43;17.40;60.40
1135;DHT22;556;53.550;10.048;2022-10-18T05:06:10;17.50;59.90
1135;DHT22;556;53.550;10.048;2022-10-18T05:08:37;17.50;59.90
1135;DHT22;556;53.550;10.048;2022-10-18T05:11:05;17.50;59.90
1135;DHT22;556;53.550;10.048;2022-10-18T05:13:32;17.50;60.50
1135;DHT22;556;53.550;10.048;2022-10-18T05:15:59;17.60;60.50
1135;DHT22;556;53.550;10.048;2022-10-18T05:18:27;17.60;59.80
1135;DHT22;556;53.550;10.048;2022-10-18T05:20:56;17.70;60.40
1135;DHT22;556;53.550;10.048;2022-10-18T05:23:23;17.70;60.10
1135;DHT22;556;53.550;10.048;2022-10-18T05:25:50;17.70;60.30
1135;DHT22;556;53.550;10.048;2022-10-18T05:28:17;17.70;60.30
1135;DHT22;556;53.550;10.048;2022-10-18T05:30:44;17.70;60.20
1135;DHT22;556;53.550;10.048;2022-10-18T05:33:11;17.70;60.40
1135;DHT22;556;53.550;10.048;2022-10-18T05:35:38;17.70;60.60
1135;DHT22;556;53.550;10.048;2022-10-18T05:38:07;17.80;60.60
1135;DHT22;556;53.550;10.048;2022-10-18T05:40:37;17.80;59.80
1135;DHT22;556;53.550;10.048;2022-10-18T05:43:04;17.80;60.30
1135;DHT22;556;53.550;10.048;2022-10-18T05:45:31;17.80;59.80
1135;DHT22;556;53.550;10.048;2022-10-18T05:47:58;17.80;60.30
1135;DHT22;556;53.550;10.048;2022-10-18T05:50:25;17.90;59.80
1135;DHT22;556;53.550;10.048;2022-10-18T05:52:54;17.90;60.40
1135;DHT22;556;53.550;10.048;2022-10-18T05:55:24;17.90;60.30
1135;DHT22;556;53.550;10.048;2022-10-18T05:57:51;17.90;60.40
1135;DHT22;556;53.550;10.048;2022-10-18T06:00:18;17.80;59.80
1135;DHT22;556;53.550;10.048;2022-10-18T06:02:45;17.80;59.80
1135;DHT22;556;53.550;10.048;2022-10-18T06:05:12;17.80;59.90
1135;DHT22;556;53.550;10.048;2022-10-18T06:07:39;17.80;60.50
1135;DHT22;556;53.550;10.048;2022-10-18T06:10:07;17.80;59.90
1135;DHT22;556;53.550;10.048;2022-10-18T06:12:35;17.90;59.90
1135;DHT22;556;53.550;10.048;2022-10-18T06:15:03;17.90;60.40
1135;DHT22;556;53.550;10.048;2022-10-18T06:17:30;18.00;59.80
1135;DHT22;556;53.550;10.048;2022-10-18T06:19:57;18.00;59.70
1135;DHT22;556;53.550;10.048;2022-10-18T06:22:24;18.00;60.30
1135;DHT22;556;53.550;10.048;2022-10-18T06:24:51;18.10;59.70
1135;DHT22;556;53.550;10.048;2022-10-18T06:27:18;18.10;59.60
1135;DHT22;556;53.550;10.048;2022-10-18T06:29:47;18.00;59.50
1135;DHT22;556;53.550;10.048;2022-10-18T06:32:14;18.00;60.00
1135;DHT22;556;53.550;10.048;2022-10-18T06:34:41;17.90;59.70
1135;DHT22;556;53.550;10.048;2022-10-18T06:37:08;17.90;59.60
1135;DHT22;556;53.550;10.048;2022-10-18T06:39:35;17.90;59.70
1135;DHT22;556;53.550;10.048;2022-10-18T06:42:02;17.90;60.10
1135;DHT22;556;53.550;10.048;2022-10-18T06:44:33;17.90;60.00
1135;DHT22;556;53.550;10.048;2022-10-18T06:47:01;17.90;59.50
1135;DHT22;556;53.550;10.048;2022-10-18T06:49:28;17.90;60.00
1135;DHT22;556;53.550;10.048;2022-10-18T06:51:55;17.90;60.00
1135;DHT22;556;53.550;10.048;2022-10-18T06:54:22;17.90;60.00
1135;DHT22;556;53.550;10.048;2022-10-18T06:56:49;18.00;60.10
1135;DHT22;556;53.550;10.048;2022-10-18T06:59:16;18.00;59.50
1135;DHT22;556;53.550;10.048;2022-10-18T07:01:43;18.00;59.40
1135;DHT22;556;53.550;10.048;2022-10-18T07:04:12;18.00;59.30
1135;DHT22;556;53.550;10.048;2022-10-18T07:06:39;18.00;59.30
1135;DHT22;556;53.550;10.048;2022-10-18T07:09:06;18.00;59.20
1135;DHT22;556;53.550;10.048;2022-10-18T07:11:33;18.00;59.60
1135;DHT22;556;53.550;10.048;2022-10-18T07:14:01;18.10;59.30
1135;DHT22;556;53.550;10.048;2022-10-18T07:16:30;18.10;59.20
1135;DHT22;556;53.550;10.048;2022-10-18T07:18:58;18.10;59.70
1135;DHT22;556;53.550;10.048;2022-10-18T07:21:26;18.10;59.30
1135;DHT22;556;53.550;10.048;2022-10-18T07:23:53;18.10;59.70
1135;DHT22;556;53.550;10.048;2022-10-18T07:26:22;18.20;59.60
1135;DHT22;556;53.550;10.048;2022-10-18T07:28:52;18.30;59.50
1135;DHT22;556;53.550;10.048;2022-10-18T07:31:20;18.30;59.00
1135;DHT22;556;53.550;10.048;2022-10-18T07:33:47;18.30;59.50
1135;DHT22;556;53.550;10.048;2022-10-18T07:36:14;18.30;58.90
1135;DHT22;556;53.550;10.048;2022-10-18T07:38:43;18.30;58.90
1135;DHT22;556;53.550;10.048;2022-10-18T07:41:11;18.30;59.50
1135;DHT22;556;53.550;10.048;2022-10-18T07:43:42;18.40;59.00
1135;DHT22;556;53.550;10.048;2022-10-18T07:46:10;18.40;58.80
1135;DHT22;556;53.550;10.048;2022-10-18T07:48:38;18.50;58.70
1135;DHT22;556;53.550;10.048;2022-10-18T07:51:05;18.60;58.70
1135;DHT22;556;53.550;10.048;2022-10-18T07:53:32;18.60;58.50
1135;DHT22;556;53.550;10.048;2022-10-18T07:56:04;18.60;58.60
1135;DHT22;556;53.550;10.048;2022-10-18T07:58:32;18.60;59.10
1135;DHT22;556;53.550;10.048;2022-10-18T08:01:01;18.60;58.70
1135;DHT22;556;53.550;10.048;2022-10-18T08:03:29;18.60;58.70
1135;DHT22;556;53.550;10.048;2022-10-18T08:05:56;18.60;59.10
1135;DHT22;556;53.550;10.048;2022-10-18T08:08:24;18.60;59.10
1135;DHT22;556;53.550;10.048;2022-10-18T08:10:51;18.70;58.50
1135;DHT22;556;53.550;10.048;2022-10-18T08:13:20;18.80;58.50
1135;DHT22;556;53.550;10.048;2022-10-18T08:15:47;18.80;58.40
1135;DHT22;556;53.550;10.048;2022-10-18T08:18:14;18.80;58.40
1135;DHT22;556;53.550;10.048;2022-10-18T08:20:42;18.80;58.30
1135;DHT22;556;53.550;10.048;2022-10-18T08:23:09;18.80;58.30
1135;DHT22;556;53.550;10.048;2022-10-18T08:25:36;19.00;58.40
1135;DHT22;556;53.550;10.048;2022-10-18T08:28:05;19.20;58.20
1135;DHT22;556;53.550;10.048;2022-10-18T08:30:34;19.20;58.20
1135;DHT22;556;53.550;10.048;2022-10-18T08:33:02;19.20;58.60
1135;DHT22;556;53.550;10.048;2022-10-18T08:35:29;19.10;57.80
1135;DHT22;556;53.550;10.048;2022-10-18T08:37:56;19.10;57.80
1135;DHT22;556;53.550;10.048;2022-10-18T08:40:24;19.00;57.80
1135;DHT22;556;53.550;10.048;2022-10-18T08:43:04;18.80;57.70
1135;DHT22;556;53.550;10.048;2022-10-18T08:45:36;18.80;57.70
1135;DHT22;556;53.550;10.048;2022-10-18T08:48:07;18.70;57.70
1135;DHT22;556;53.550;10.048;2022-10-18T08:50:35;18.70;57.70
1135;DHT22;556;53.550;10.048;2022-10-18T08:53:12;18.60;57.60
1135;DHT22;556;53.550;10.048;2022-10-18T08:55:44;18.60;58.10
1135;DHT22;556;53.550;10.048;2022-10-18T08:58:20;18.50;57.70
1135;DHT22;556;53.550;10.048;2022-10-18T09:00:57;18.50;57.60
1135;DHT22;556;53.550;10.048;2022-10-18T09:03:42;18.50;58.10
1135;DHT22;556;53.550;10.048;2022-10-18T09:06:17;18.40;58.30
1135;DHT22;556;53.550;10.048;2022-10-18T09:08:52;18.30;57.70
1135;DHT22;556;53.550;10.048;2022-10-18T09:11:40;18.20;58.10
1135;DHT22;556;53.550;10.048;2022-10-18T09:14:36;18.10;57.90
1135;DHT22;556;53.550;10.048;2022-10-18T09:17:14;18.00;58.30
1135;DHT22;556;53.550;10.048;2022-10-18T09:19:51;18.10;57.90
1135;DHT22;556;53.550;10.048;2022-10-18T09:22:28;18.00;58.30
1135;DHT22;556;53.550;10.048;2022-10-18T09:25:05;18.10;58.30
1135;DHT22;556;53.550;10.048;2022-10-18T09:27:36;18.20;57.80
1135;DHT22;556;53.550;10.048;2022-10-18T09:30:14;18.20;57.90
1135;DHT22;556;53.550;10.048;2022-10-18T09:32:50;18.20;58.30
1135;DHT22;556;53.550;10.048;2022-10-18T09:35:23;18.30;57.70
1135;DHT22;556;53.550;10.048;2022-10-18T09:37:52;18.30;58.10
1135;DHT22;556;53.550;10.048;2022-10-18T09:40:24;18.30;58.10
1135;DHT22;556;53.550;10.048;2022-10-18T09:42:56;18.30;57.70
1135;DHT22;556;53.550;10.048;2022-10-18T09:45:27;18.30;58.10
1135;DHT22;556;53.550;10.048;2022-10-18T09:48:02;18.40;58.10
1135;DHT22;556;53.550;10.048;2022-10-18T09:50:34;18.30;57.50
1135;DHT22;556;53.550;10.048;2022-10-18T09:53:10;18.30;57.50
1135;DHT22;556;53.550;10.048;2022-10-18T09:55:47;18.30;58.00
1135;DHT22;556;53.550;10.048;2022-10-18T09:58:19;18.40;57.50
1135;DHT22;556;53.550;10.048;2022-10-18T10:00:50;18.40;57.50
1135;DHT22;556;53.550;10.048;2022-10-18T10:03:19;18.40;57.40
1135;DHT22;556;53.550;10.048;2022-10-18T10:05:46;18.40;57.90
1135;DHT22;556;53.550;10.048;2022-10-18T10:08:32;18.50;57.50
1135;DHT22;556;53.550;10.048;2022-10-18T10:11:00;18.60;57.50
1135;DHT22;556;53.550;10.048;2022-10-18T10:13:27;18.60;57.30
1135;DHT22;556;53.550;10.048;2022-10-18T10:15:56;18.60;57.20
1135;DHT22;556;53.550;10.048;2022-10-18T10:18:26;18.50;58.10
1135;DHT22;556;53.550;10.048;2022-10-18T10:20:56;18.40;57.50
1135;DHT22;556;53.550;10.048;2022-10-18T10:23:26;18.30;57.10
1135;DHT22;556;53.550;10.048;2022-10-18T10:25:57;18.30;57.60
1135;DHT22;556;53.550;10.048;2022-10-18T10:28:28;18.40;57.60
1135;DHT22;556;53.550;10.048;2022-10-18T10:31:16;18.40;57.00
1135;DHT22;556;53.550;10.048;2022-10-18T10:33:46;18.40;56.90
1135;DHT22;556;53.550;10.048;2022-10-18T10:36:16;18.40;57.30
1135;DHT22;556;53.550;10.048;2022-10-18T10:38:44;18.60;56.80
1135;DHT22;556;53.550;10.048;2022-10-18T10:41:19;18.70;57.30
1135;DHT22;556;53.550;10.048;2022-10-18T10:43:47;19.00;56.60
1135;DHT22;556;53.550;10.048;2022-10-18T10:46:16;19.20;56.50
1135;DHT22;556;53.550;10.048;2022-10-18T10:48:48;19.20;56.90
1135;DHT22;556;53.550;10.048;2022-10-18T10:51:17;19.20;56.80
1135;DHT22;556;53.550;10.048;2022-10-18T10:53:58;19.30;56.70
1135;DHT22;556;53.550;10.048;2022-10-18T10:56:28;19.30;56.70
1135;DHT22;556;53.550;10.048;2022-10-18T10:59:05;19.10;56.20
1135;DHT22;556;53.550;10.048;2022-10-18T11:01:32;19.20;56.70
1135;DHT22;556;53.550;10.048;2022-10-18T11:04:20;19.20;56.20
1135;DHT22;556;53.550;10.048;2022-10-18T11:07:02;19.20;56.10
1135;DHT22;556;53.550;10.048;2022-10-18T11:09:43;19.30;56.00
1135;DHT22;556;53.550;10.048;2022-10-18T11:12:27;19.50;55.80
1135;DHT22;556;53.550;10.048;2022-10-18T11:15:22;19.50;55.70
1135;DHT22;556;53.550;10.048;2022-10-18T11:18:01;19.60;56.10
1135;DHT22;556;53.550;10.048;2022-10-18T11:20:35;19.70;56.00
1135;DHT22;556;53.550;10.048;2022-10-18T11:23:06;19.80;55.40
1135;DHT22;556;53.550;10.048;2022-10-18T11:26:00;19.90;55.20
1135;DHT22;556;53.550;10.048;2022-10-18T11:28:39;20.10;55.20
1135;DHT22;556;53.550;10.048;2022-10-18T11:31:15;20.20;55.40
1135;DHT22;556;53.550;10.048;2022-10-18T11:33:56;20.20;55.30
1135;DHT22;556;53.550;10.048;2022-10-18T11:36:32;20.20;54.70
1135;DHT22;556;53.550;10.048;2022-10-18T11:39:08;20.20;55.10
1135;DHT22;556;53.550;10.048;2022-10-18T11:41:38;20.00;54.50
1135;DHT22;556;53.550;10.048;2022-10-18T11:44:18;20.00;54.30
1135;DHT22;556;53.550;10.048;2022-10-18T11:46:56;20.00;54.90
1135;DHT22;556;53.550;10.048;2022-10-18T11:49:40;20.10;54.80
1135;DHT22;556;53.550;10.048;2022-10-18T11:52:15;20.10;54.70
1135;DHT22;556;53.550;10.048;2022-10-18T11:55:01;20.20;54.10
1135;DHT22;556;53.550;10.048;2022-10-18T11:57:42;20.10;54.30
1135;DHT22;556;53.550;10.048;2022-10-18T12:00:21;19.90;53.50
1135;DHT22;556;53.550;10.048;2022-10-18T12:05:50;19.80;53.50
1135;DHT22;556;53.550;10.048;2022-10-18T12:08:21;19.90;53.50
1135;DHT22;556;53.550;10.048;2022-10-18T12:10:52;19.90;53.40
1135;DHT22;556;53.550;10.048;2022-10-18T12:13:24;20.00;53.90
1135;DHT22;556;53.550;10.048;2022-10-18T12:15:56;20.10;53.20
1135;DHT22;556;53.550;10.048;2022-10-18T12:18:24;20.20;53.70
1135;DHT22;556;53.550;10.048;2022-10-18T12:20:54;20.30;53.70
1135;DHT22;556;53.550;10.048;2022-10-18T12:23:33;20.40;53.40
1135;DHT22;556;53.550;10.048;2022-10-18T12:26:04;20.50;53.30
1135;DHT22;556;53.550;10.048;2022-10-18T12:28:39;20.50;52.70
1135;DHT22;556;53.550;10.048;2022-10-18T12:31:15;20.70;52.60
1135;DHT22;556;53.550;10.048;2022-10-18T12:33:45;20.80;52.30
1135;DHT22;556;53.550;10.048;2022-10-18T12:36:35;20.80;52.20
1135;DHT22;556;53.550;10.048;2022-10-18T12:39:14;20.70;52.20
1135;DHT22;556;53.550;10.048;2022-10-18T12:41:46;20.70;52.70
1135;DHT22;556;53.550;10.048;2022-10-18T12:44:19;20.60;52.00
1135;DHT22;556;53.550;10.048;2022-10-18T12:46:49;20.50;52.10
1135;DHT22;556;53.550;10.048;2022-10-18T12:49:20;20.40;52.00
1135;DHT22;556;53.550;10.048;2022-10-18T12:51:52;20.40;51.90
1135;DHT22;556;53.550;10.048;2022-10-18T12:54:24;20.40;51.60
1135;DHT22;556;53.550;10.048;2022-10-18T12:56:52;20.40;51.60
1135;DHT22;556;53.550;10.048;2022-10-18T12:59:49;20.50;52.00
1135;DHT22;556;53.550;10.048;2022-10-18T13:02:34;20.90;51.30
1135;DHT22;556;53.550;10.048;2022-10-18T13:11:30;22.10;52.10
1135;DHT22;556;53.550;10.048;2022-10-18T13:16:52;23.50;51.80
1135;DHT22;556;53.550;10.048;2022-10-18T13:19:29;24.10;50.60
1135;DHT22;556;53.550;10.048;2022-10-18T13:22:17;24.20;50.10
1135;DHT22;556;53.550;10.048;2022-10-18T13:24:56;24.20;50.40
1135;DHT22;556;53.550;10.048;2022-10-18T13:27:43;23.50;49.50
1135;DHT22;556;53.550;10.048;2022-10-18T13:33:18;22.10;49.50
1135;DHT22;556;53.550;10.048;2022-10-18T13:35:52;22.10;50.00
1135;DHT22;556;53.550;10.048;2022-10-18T13:38:43;21.70;49.70
1135;DHT22;556;53.550;10.048;2022-10-18T13:41:14;21.70;49.60
1135;DHT22;556;53.550;10.048;2022-10-18T13:44:09;21.50;49.20
1135;DHT22;556;53.550;10.048;2022-10-18T13:47:08;21.10;49.00
1135;DHT22;556;53.550;10.048;2022-10-18T13:49:47;21.00;49.20
1135;DHT22;556;53.550;10.048;2022-10-18T13:52:27;20.70;49.10
1135;DHT22;556;53.550;10.048;2022-10-18T13:55:05;20.90;49.40
1135;DHT22;556;53.550;10.048;2022-10-18T13:57:47;21.50;49.80
1135;DHT22;556;53.550;10.048;2022-10-18T14:03:43;23.10;49.60
1135;DHT22;556;53.550;10.048;2022-10-18T14:06:15;23.10;50.00
1135;DHT22;556;53.550;10.048;2022-10-18T14:08:47;23.60;49.80
1135;DHT22;556;53.550;10.048;2022-10-18T14:11:24;24.00;48.90
1135;DHT22;556;53.550;10.048;2022-10-18T14:13:55;24.40;48.40
1135;DHT22;556;53.550;10.048;2022-10-18T14:16:35;24.80;48.30
1135;DHT22;556;53.550;10.048;2022-10-18T14:19:13;24.90;48.50
1135;DHT22;556;53.550;10.048;2022-10-18T14:21:48;24.90;47.60
1135;DHT22;556;53.550;10.048;2022-10-18T14:24:19;24.90;47.30
1135;DHT22;556;53.550;10.048;2022-10-18T14:26:50;24.90;47.00
1135;DHT22;556;53.550;10.048;2022-10-18T14:29:36;24.90;47.50
1135;DHT22;556;53.550;10.048;2022-10-18T14:32:07;24.30;46.30
1135;DHT22;556;53.550;10.048;2022-10-18T14:34:35;23.80;46.20
1135;DHT22;556;53.550;10.048;2022-10-18T14:37:02;23.70;46.80
1135;DHT22;556;53.550;10.048;2022-10-18T14:39:30;23.50;46.60
1135;DHT22;556;53.550;10.048;2022-10-18T14:41:58;23.10;45.90
1135;DHT22;556;53.550;10.048;2022-10-18T14:44:26;22.90;46.00
1135;DHT22;556;53.550;10.048;2022-10-18T14:46:59;22.90;46.60
1135;DHT22;556;53.550;10.048;2022-10-18T14:49:28;22.50;45.80
1135;DHT22;556;53.550;10.048;2022-10-18T14:51:58;22.40;46.30
1135;DHT22;556;53.550;10.048;2022-10-18T14:54:29;22.10;46.20
1135;DHT22;556;53.550;10.048;2022-10-18T14:56:57;21.40;45.80
1135;DHT22;556;53.550;10.048;2022-10-18T14:59:26;21.30;46.40
1135;DHT22;556;53.550;10.048;2022-10-18T15:01:56;20.90;46.00
1135;DHT22;556;53.550;10.048;2022-10-18T15:04:26;20.60;46.20
1135;DHT22;556;53.550;10.048;2022-10-18T15:07:01;20.50;46.60
1135;DHT22;556;53.550;10.048;2022-10-18T15:09:29;20.20;46.30
1135;DHT22;556;53.550;10.048;2022-10-18T15:11:58;20.20;46.80
1135;DHT22;556;53.550;10.048;2022-10-18T15:14:27;20.00;46.30
1135;DHT22;556;53.550;10.048;2022-10-18T15:16:59;19.90;46.70
1135;DHT22;556;53.550;10.048;2022-10-18T15:19:30;19.80;46.40
1135;DHT22;556;53.550;10.048;2022-10-18T15:22:00;19.70;46.30
1135;DHT22;556;53.550;10.048;2022-10-18T15:24:31;19.60;46.30
1135;DHT22;556;53.550;10.048;2022-10-18T15:27:07;19.50;46.50
1135;DHT22;556;53.550;10.048;2022-10-18T15:29:36;19.50;47.00
1135;DHT22;556;53.550;10.048;2022-10-18T15:32:10;19.50;46.70
1135;DHT22;556;53.550;10.048;2022-10-18T15:34:39;19.50;46.60
1135;DHT22;556;53.550;10.048;2022-10-18T15:37:17;19.50;46.60
1135;DHT22;556;53.550;10.048;2022-10-18T15:39:45;19.50;46.60
1135;DHT22;556;53.550;10.048;2022-10-18T15:42:35;19.50;46.70
1135;DHT22;556;53.550;10.048;2022-10-18T15:45:32;19.40;46.70
1135;DHT22;556;53.550;10.048;2022-10-18T15:48:02;19.30;46.70
1135;DHT22;556;53.550;10.048;2022-10-18T15:50:38;19.20;46.90
1135;DHT22;556;53.550;10.048;2022-10-18T16:03:26;18.70;47.30
1135;DHT22;556;53.550;10.048;2022-10-18T16:05:57;18.70;47.70
1135;DHT22;556;53.550;10.048;2022-10-18T16:10:56;18.60;47.30
1135;DHT22;556;53.550;10.048;2022-10-18T16:13:23;18.60;47.30
1135;DHT22;556;53.550;10.048;2022-10-18T16:15:52;18.40;47.30
1135;DHT22;556;53.550;10.048;2022-10-18T16:18:21;18.50;47.40
1135;DHT22;556;53.550;10.048;2022-10-18T16:20:49;18.40;47.40
1135;DHT22;556;53.550;10.048;2022-10-18T16:23:19;18.40;47.40
1135;DHT22;556;53.550;10.048;2022-10-18T16:28:19;18.30;47.60
1135;DHT22;556;53.550;10.048;2022-10-18T16:30:53;18.30;47.60
1135;DHT22;556;53.550;10.048;2022-10-18T16:33:22;18.20;47.50
1135;DHT22;556;53.550;10.048;2022-10-18T16:35:50;18.20;47.50
1135;DHT22;556;53.550;10.048;2022-10-18T16:38:25;18.20;47.70
1135;DHT22;556;53.550;10.048;2022-10-18T16:40:54;18.10;47.70
1135;DHT22;556;53.550;10.048;2022-10-18T16:43:22;18.00;47.60
1135;DHT22;556;53.550;10.048;2022-10-18T16:45:51;18.00;47.70
1135;DHT22;556;53.550;10.048;2022-10-18T16:48:21;18.00;47.70
1135;DHT22;556;53.550;10.048;2022-10-18T16:55:51;18.00;47.90
1135;DHT22;556;53.550;10.048;2022-10-18T16:58:21;18.00;47.90
1135;DHT22;556;53.550;10.048;2022-10-18T17:00:49;18.00;47.90
1135;DHT22;556;53.550;10.048;2022-10-18T17:05:44;18.10;47.90
1135;DHT22;556;53.550;10.048;2022-10-18T17:08:19;18.00;47.90
1135;DHT22;556;53.550;10.048;2022-10-18T17:10:47;18.00;47.90
1135;DHT22;556;53.550;10.048;2022-10-18T17:13:15;17.90;48.10